Time;durP1;ratioP1;P1;durP2;ratioP2;P2;SDS_P1;SDS_P2;PMS_P1;PMS_P2;Temp;Humidity;BMP_temperature;BMP_pressure;BME280_temperature;BME280_humidity;BME280_pressure;Samples;Min_cycle;Max_cycle;Signal;HPM_P1;HPM_P2
2023/10/10 00:01:17;;;;;;;29.20;19.73;;;;;;;;;;5065788;28;20599;-55
2023/10/10 00:03:45;;;;;;;22.73;18.73;;;;;;;;;;5066039;28;20569;-55
2023/10/10 00:06:13;;;;;;;24.60;19.80;;;;;;;;;;5061825;28;20200;-55
2023/10/10 00:08:44;;;;;;;24.17;20.33;;;;;;;;;;5062964;28;20176;-55
2023/10/10 00:11:19;;;;;;;23.00;19.20;;;;;;;;;;5064588;28;20204;-55
2023/10/10 00:13:46;;;;;;;24.70;18.90;;;;;;;;;;5064566;28;20210;-55
2023/10/10 00:16:26;;;;;;;24.40;19.53;;;;;;;;;;5068204;28;20230;-55
2023/10/10 00:18:56;;;;;;;24.17;20.23;;;;;;;;;;5067073;28;20180;-55
2023/10/10 00:21:28;;;;;;;23.33;20.77;;;;;;;;;;5064726;28;20239;-54
2023/10/10 00:23:55;;;;;;;23.87;19.63;;;;;;;;;;5065487;28;20504;-55
2023/10/10 00:26:25;;;;;;;24.13;20.20;;;;;;;;;;5066795;28;20278;-55
2023/10/10 00:28:55;;;;;;;26.67;21.60;;;;;;;;;;5066215;28;20242;-55
2023/10/10 00:31:22;;;;;;;22.10;19.63;;;;;;;;;;5066301;28;20208;-55
2023/10/10 00:33:50;;;;;;;26.80;20.50;;;;;;;;;;5067317;28;20519;-55
2023/10/10 00:36:28;;;;;;;27.60;20.83;;;;;;;;;;5062885;28;20169;-55
2023/10/10 00:44:16;;;;;;;25.53;19.30;;;;;;;;;;5062037;28;20184;-55
2023/10/10 00:46:42;;;;;;;23.47;20.07;;;;;;;;;;5063414;28;20195;-54
2023/10/10 00:49:10;;;;;;;21.40;18.57;;;;;;;;;;5054932;28;20185;-54
2023/10/10 00:51:39;;;;;;;22.10;19.30;;;;;;;;;;5063432;28;20667;-55
2023/10/10 00:54:13;;;;;;;24.07;19.00;;;;;;;;;;5062283;28;20387;-55
2023/10/10 00:56:44;;;;;;;21.17;18.53;;;;;;;;;;5060290;28;20365;-55
2023/10/10 00:59:11;;;;;;;20.33;18.00;;;;;;;;;;5062852;28;20212;-55
2023/10/10 01:01:40;;;;;;;19.00;16.77;;;;;;;;;;5063606;28;20180;-55
2023/10/10 01:04:07;;;;;;;19.47;16.80;;;;;;;;;;5062230;28;20179;-54
2023/10/10 01:06:39;;;;;;;20.57;18.37;;;;;;;;;;5061609;28;20195;-55
2023/10/10 01:09:21;;;;;;;21.50;17.53;;;;;;;;;;5066528;28;20193;-54
2023/10/10 01:11:50;;;;;;;20.70;18.33;;;;;;;;;;5067390;28;20227;-55
2023/10/10 01:14:24;;;;;;;19.87;17.13;;;;;;;;;;5068525;28;20268;-55
2023/10/10 01:16:55;;;;;;;21.03;16.93;;;;;;;;;;5064271;28;20180;-55
2023/10/10 01:19:28;;;;;;;21.80;17.73;;;;;;;;;;5069985;28;20602;-55
2023/10/10 01:21:57;;;;;;;22.23;18.03;;;;;;;;;;5062179;28;20205;-55
2023/10/10 01:24:24;;;;;;;24.80;17.20;;;;;;;;;;5069225;28;20553;-55
2023/10/10 01:26:51;;;;;;;20.57;18.33;;;;;;;;;;5070201;28;20214;-55
2023/10/10 01:31:46;;;;;;;18.83;16.93;;;;;;;;;;5069942;28;20749;-55
2023/10/10 01:34:14;;;;;;;19.47;17.30;;;;;;;;;;5069267;28;20269;-55
2023/10/10 01:36:40;;;;;;;19.30;17.03;;;;;;;;;;5063459;28;20234;-55
2023/10/10 01:39:20;;;;;;;20.47;18.27;;;;;;;;;;5069155;28;20178;-55
2023/10/10 01:41:48;;;;;;;20.37;17.83;;;;;;;;;;5064648;28;20509;-55
2023/10/10 01:44:23;;;;;;;22.63;19.67;;;;;;;;;;5068936;28;20194;-55
2023/10/10 01:46:53;;;;;;;23.13;19.33;;;;;;;;;;5068558;28;20541;-55
2023/10/10 01:49:29;;;;;;;23.10;20.70;;;;;;;;;;5069855;28;20626;-55
2023/10/10 01:51:58;;;;;;;26.20;23.40;;;;;;;;;;5059260;28;20606;-54
2023/10/10 01:54:41;;;;;;;23.60;21.10;;;;;;;;;;5068449;28;20495;-55
2023/10/10 01:57:09;;;;;;;23.43;21.07;;;;;;;;;;5064292;28;20178;-55
2023/10/10 01:59:38;;;;;;;22.10;19.70;;;;;;;;;;5067816;28;20185;-55
2023/10/10 02:02:10;;;;;;;24.13;21.53;;;;;;;;;;5066765;28;20609;-55
2023/10/10 02:04:37;;;;;;;25.03;21.87;;;;;;;;;;5064001;28;20722;-55
2023/10/10 02:07:14;;;;;;;27.93;23.20;;;;;;;;;;5060061;28;20653;-56
2023/10/10 02:09:40;;;;;;;25.83;21.47;;;;;;;;;;5064801;28;20168;-55
2023/10/10 02:12:15;;;;;;;23.70;21.13;;;;;;;;;;5068667;28;20562;-55
2023/10/10 02:14:43;;;;;;;25.17;22.53;;;;;;;;;;5053271;28;20204;-55
2023/10/10 02:17:20;;;;;;;24.47;21.90;;;;;;;;;;5062611;28;20200;-56
2023/10/10 02:19:53;;;;;;;27.07;23.83;;;;;;;;;;5067735;28;20720;-55
2023/10/10 02:23:09;;;;;;;28.27;22.87;;;;;;;;;;5055036;28;20169;-55
2023/10/10 02:27:55;;;;;;;26.83;22.03;;;;;;;;;;5065808;28;20632;-55
2023/10/10 02:31:03;;;;;;;27.77;22.40;;;;;;;;;;5068743;28;20255;-54
2023/10/10 02:35:54;;;;;;;25.40;21.93;;;;;;;;;;5068646;28;20491;-54
2023/10/10 02:38:54;;;;;;;29.40;23.77;;;;;;;;;;5063064;28;20176;-55
2023/10/10 02:44:09;;;;;;;26.70;23.07;;;;;;;;;;5067010;28;20181;-55
2023/10/10 02:46:41;;;;;;;26.43;21.83;;;;;;;;;;5061361;28;20188;-55
2023/10/10 02:49:12;;;;;;;27.27;23.77;;;;;;;;;;5067959;28;20185;-55
2023/10/10 02:51:41;;;;;;;27.83;22.97;;;;;;;;;;5059638;28;20217;-54
2023/10/10 02:54:20;;;;;;;26.30;21.80;;;;;;;;;;5067136;28;20290;-55
2023/10/10 02:56:48;;;;;;;29.67;24.63;;;;;;;;;;5068450;28;20627;-55
2023/10/10 02:59:21;;;;;;;32.30;22.80;;;;;;;;;;5062814;28;20612;-55
2023/10/10 03:01:56;;;;;;;26.10;22.60;;;;;;;;;;5059863;28;20259;-54
2023/10/10 03:04:28;;;;;;;26.60;23.00;;;;;;;;;;5063590;28;20189;-55
2023/10/10 03:06:56;;;;;;;26.00;22.07;;;;;;;;;;5058819;28;20169;-54
2023/10/10 03:09:38;;;;;;;26.07;21.93;;;;;;;;;;5067187;28;20227;-54
2023/10/10 03:12:05;;;;;;;27.07;22.47;;;;;;;;;;5066471;28;20209;-55
2023/10/10 03:14:34;;;;;;;36.07;23.47;;;;;;;;;;5066712;28;20173;-55
2023/10/10 03:17:06;;;;;;;32.80;27.17;;;;;;;;;;5067510;28;20229;-54
2023/10/10 03:19:39;;;;;;;25.00;22.50;;;;;;;;;;5072221;28;20168;-54
2023/10/10 03:22:22;;;;;;;25.53;22.80;;;;;;;;;;5059407;28;20175;-54
2023/10/10 03:25:07;;;;;;;27.47;22.63;;;;;;;;;;5061856;28;20176;-54
2023/10/10 03:27:50;;;;;;;27.13;23.33;;;;;;;;;;5064885;28;20180;-55
2023/10/10 03:30:50;;;;;;;26.33;23.40;;;;;;;;;;5066188;28;20561;-54
2023/10/10 03:33:29;;;;;;;32.63;25.87;;;;;;;;;;5062930;28;20172;-54
2023/10/10 03:36:01;;;;;;;29.40;24.13;;;;;;;;;;5067666;28;20173;-55
2023/10/10 03:38:45;;;;;;;29.90;25.10;;;;;;;;;;5066370;28;20179;-55
2023/10/10 05:25:50;;;;;;;22.87;18.13;;;;;;;;;;5062097;28;20189;-52
2023/10/10 05:28:18;;;;;;;21.40;17.70;;;;;;;;;;5065053;28;20210;-52
2023/10/10 05:30:45;;;;;;;18.67;16.47;;;;;;;;;;5059919;28;20207;-52
2023/10/10 05:33:12;;;;;;;19.17;16.63;;;;;;;;;;5064080;28;20187;-52
2023/10/10 05:35:40;;;;;;;22.17;14.53;;;;;;;;;;5059829;28;20181;-52
2023/10/10 05:38:10;;;;;;;20.57;15.30;;;;;;;;;;5063520;28;20639;-52
2023/10/10 05:40:39;;;;;;;16.57;14.30;;;;;;;;;;5061518;28;20245;-52
2023/10/10 05:43:26;;;;;;;18.53;13.73;;;;;;;;;;5065188;28;20197;-52
2023/10/10 05:45:53;;;;;;;19.23;15.00;;;;;;;;;;5063221;28;20171;-52
2023/10/10 05:48:20;;;;;;;16.97;13.73;;;;;;;;;;5064812;28;20316;-52
2023/10/10 05:50:48;;;;;;;18.80;14.77;;;;;;;;;;5061523;28;20299;-52
2023/10/10 05:53:16;;;;;;;14.53;12.93;;;;;;;;;;5059943;28;20513;-53
2023/10/10 05:55:43;;;;;;;17.97;13.63;;;;;;;;;;5068817;28;20193;-52
2023/10/10 05:58:11;;;;;;;15.53;12.67;;;;;;;;;;5067901;28;20562;-52
2023/10/10 06:00:37;;;;;;;13.73;11.93;;;;;;;;;;5067637;28;20195;-52
2023/10/10 06:03:05;;;;;;;12.57;11.33;;;;;;;;;;5067589;28;20174;-52
2023/10/10 06:05:33;;;;;;;13.53;12.07;;;;;;;;;;5063382;28;20580;-52
2023/10/10 06:07:59;;;;;;;21.40;11.87;;;;;;;;;;5063120;28;20191;-52
2023/10/10 06:10:31;;;;;;;12.87;10.43;;;;;;;;;;5068868;28;20202;-53
2023/10/10 06:12:58;;;;;;;16.13;11.10;;;;;;;;;;5067355;28;20186;-52
2023/10/10 06:15:24;;;;;;;13.80;12.27;;;;;;;;;;5068635;28;20488;-52
2023/10/10 06:17:57;;;;;;;14.55;11.30;;;;;;;;;;5077140;28;20533;-52
2023/10/10 06:20:26;;;;;;;13.07;10.53;;;;;;;;;;5070659;28;20215;-52
2023/10/10 06:22:54;;;;;;;12.10;9.57;;;;;;;;;;5065043;28;20176;-52
2023/10/10 06:25:21;;;;;;;11.63;9.27;;;;;;;;;;5067727;28;20180;-52
2023/10/10 06:27:54;;;;;;;11.30;9.50;;;;;;;;;;5066734;28;20320;-53
2023/10/10 06:30:20;;;;;;;10.27;8.53;;;;;;;;;;5068102;28;20231;-52
2023/10/10 06:32:47;;;;;;;11.73;8.17;;;;;;;;;;5063901;28;20241;-52
2023/10/10 06:37:41;;;;;;;12.70;9.33;;;;;;;;;;5062712;28;20196;-52
2023/10/10 06:40:08;;;;;;;9.30;8.33;;;;;;;;;;5070301;28;20256;-52
2023/10/10 06:42:38;;;;;;;9.83;8.50;;;;;;;;;;5069872;28;20264;-52
2023/10/10 06:45:10;;;;;;;8.67;7.50;;;;;;;;;;5070887;28;20629;-52
2023/10/10 06:47:39;;;;;;;9.63;7.90;;;;;;;;;;5069925;28;20192;-52
2023/10/10 06:50:11;;;;;;;10.83;8.73;;;;;;;;;;5070039;28;20184;-52
2023/10/10 06:52:43;;;;;;;10.10;8.50;;;;;;;;;;5068751;28;20283;-52
2023/10/10 06:55:20;;;;;;;9.90;8.50;;;;;;;;;;5070237;28;20213;-52
2023/10/10 06:57:57;;;;;;;9.00;7.83;;;;;;;;;;5069545;28;20205;-52
2023/10/10 07:03:08;;;;;;;10.63;7.70;;;;;;;;;;5069741;28;20177;-52
2023/10/10 07:05:34;;;;;;;11.33;8.00;;;;;;;;;;5069722;28;20561;-52
2023/10/10 07:08:12;;;;;;;8.73;7.70;;;;;;;;;;5068793;28;20180;-53
2023/10/10 07:10:42;;;;;;;8.17;7.30;;;;;;;;;;5070030;28;20271;-52
2023/10/10 07:13:12;;;;;;;9.53;7.67;;;;;;;;;;5069740;28;20255;-52
2023/10/10 07:15:39;;;;;;;10.87;8.17;;;;;;;;;;5070102;28;20222;-53
2023/10/10 07:18:15;;;;;;;8.13;7.33;;;;;;;;;;5069212;28;20553;-53
2023/10/10 07:23:37;;;;;;;9.65;8.15;;;;;;;;;;5067148;28;20413;-52
2023/10/10 07:26:23;;;;;;;8.93;7.87;;;;;;;;;;5069606;28;20617;-53
2023/10/10 07:28:49;;;;;;;10.77;8.13;;;;;;;;;;5068055;28;20212;-53
2023/10/10 07:31:20;;;;;;;8.43;7.00;;;;;;;;;;5069198;28;20192;-52
2023/10/10 07:34:39;;;;;;;10.97;8.20;;;;;;;;;;5068815;28;20172;-53
2023/10/10 07:36:50;;;;;;;9.83;6.93;;;;;;;;;;5068039;28;20185;-53
2023/10/10 07:39:55;;;;;;;9.47;7.77;;;;;;;;;;5068064;28;20252;-53
2023/10/10 07:42:09;;;;;;;11.30;8.10;;;;;;;;;;5068400;28;20176;-53
2023/10/10 07:44:35;;;;;;;9.63;7.87;;;;;;;;;;5049311;28;20184;-52
2023/10/10 07:47:19;;;;;;;9.80;7.90;;;;;;;;;;5048998;28;20176;-52
2023/10/10 07:49:50;;;;;;;9.37;8.20;;;;;;;;;;5049476;28;20165;-54
2023/10/10 07:55:22;;;;;;;12.00;9.33;;;;;;;;;;5067004;28;20262;-53
2023/10/10 07:58:01;;;;;;;11.13;9.40;;;;;;;;;;5068006;28;20212;-54
2023/10/10 08:00:38;;;;;;;9.50;8.07;;;;;;;;;;5068920;28;20193;-52
2023/10/10 08:03:06;;;;;;;11.50;8.37;;;;;;;;;;5068326;28;20191;-54
2023/10/10 08:05:32;;;;;;;12.97;9.00;;;;;;;;;;5069046;28;20244;-52
2023/10/10 08:08:04;;;;;;;13.97;10.20;;;;;;;;;;5067121;28;20216;-53
2023/10/10 08:10:37;;;;;;;12.07;9.27;;;;;;;;;;5067183;28;20291;-52
2023/10/10 08:13:10;;;;;;;13.37;10.07;;;;;;;;;;5068335;28;20555;-52
2023/10/10 08:15:48;;;;;;;12.03;9.70;;;;;;;;;;5068964;28;20612;-52
2023/10/10 08:18:39;;;;;;;12.20;10.63;;;;;;;;;;5067990;28;20173;-52
2023/10/10 08:23:27;;;;;;;12.53;10.03;;;;;;;;;;5066890;28;20617;-52
2023/10/10 08:25:56;;;;;;;11.87;9.40;;;;;;;;;;5068606;28;20175;-52
2023/10/10 08:28:23;;;;;;;12.70;9.20;;;;;;;;;;5067813;28;20707;-52
2023/10/10 08:30:53;;;;;;;11.70;9.07;;;;;;;;;;5068415;28;20200;-52
2023/10/10 08:33:19;;;;;;;11.30;9.43;;;;;;;;;;5067967;28;20164;-52
2023/10/10 08:35:46;;;;;;;11.63;9.33;;;;;;;;;;5068483;28;20580;-52
2023/10/10 08:38:19;;;;;;;12.70;9.70;;;;;;;;;;5066819;28;20171;-52
2023/10/10 08:40:56;;;;;;;15.67;11.17;;;;;;;;;;5069280;28;20321;-52
2023/10/10 08:43:26;;;;;;;11.23;9.33;;;;;;;;;;5067851;28;20620;-52
2023/10/10 08:45:54;;;;;;;13.53;9.87;;;;;;;;;;5068819;28;20177;-52
2023/10/10 08:48:26;;;;;;;11.90;10.10;;;;;;;;;;5068113;28;20739;-53
2023/10/10 08:50:54;;;;;;;13.40;8.93;;;;;;;;;;5068865;28;20698;-52
2023/10/10 08:53:22;;;;;;;13.90;9.13;;;;;;;;;;5066995;28;20620;-52
2023/10/10 08:55:56;;;;;;;12.73;9.47;;;;;;;;;;5068831;28;20240;-52
2023/10/10 08:58:22;;;;;;;9.07;8.10;;;;;;;;;;5067487;28;20216;-52
2023/10/10 09:00:49;;;;;;;10.40;7.77;;;;;;;;;;5068353;28;20172;-52
2023/10/10 09:03:16;;;;;;;10.60;7.97;;;;;;;;;;5068087;28;20532;-52
2023/10/10 09:05:42;;;;;;;10.10;8.13;;;;;;;;;;5068053;28;20180;-52
2023/10/10 09:08:14;;;;;;;10.33;8.40;;;;;;;;;;5066522;28;20180;-53
2023/10/10 09:10:41;;;;;;;10.40;7.57;;;;;;;;;;5068535;28;20239;-52
2023/10/10 09:13:09;;;;;;;10.10;7.93;;;;;;;;;;5067756;28;20616;-52
2023/10/10 09:15:36;;;;;;;11.03;7.90;;;;;;;;;;5068234;28;20616;-52
2023/10/10 09:18:17;;;;;;;10.27;8.43;;;;;;;;;;5067452;28;20197;-52
2023/10/10 09:20:47;;;;;;;13.07;8.50;;;;;;;;;;5067776;28;20227;-53
2023/10/10 09:23:42;;;;;;;9.17;7.37;;;;;;;;;;5066301;28;20547;-53
2023/10/10 09:26:12;;;;;;;11.10;7.73;;;;;;;;;;5067373;28;20261;-53
2023/10/10 09:28:58;;;;;;;9.17;7.67;;;;;;;;;;5068335;28;20574;-53
2023/10/10 09:31:31;;;;;;;10.23;7.70;;;;;;;;;;5071523;28;20215;-54
2023/10/10 09:33:57;;;;;;;10.37;8.57;;;;;;;;;;5071325;28;20248;-53
2023/10/10 09:36:27;;;;;;;10.87;8.00;;;;;;;;;;5071316;28;20302;-53
2023/10/10 09:39:08;;;;;;;12.07;7.90;;;;;;;;;;5070564;28;20168;-52
2023/10/10 09:49:44;;;;;;;10.70;7.83;;;;;;;;;;5071475;28;20184;-52
2023/10/10 09:57:44;;;;;;;8.57;7.47;;;;;;;;;;5070408;28;20275;-53
2023/10/10 10:00:14;;;;;;;9.87;6.77;;;;;;;;;;5071073;28;20643;-52
2023/10/10 10:02:48;;;;;;;8.47;7.20;;;;;;;;;;5070195;28;20199;-52
2023/10/10 10:05:20;;;;;;;9.40;7.20;;;;;;;;;;5071132;28;20179;-52
2023/10/10 10:08:06;;;;;;;10.40;7.60;;;;;;;;;;5069725;28;20252;-52
2023/10/10 10:10:35;;;;;;;8.50;7.20;;;;;;;;;;5071217;28;20539;-52
2023/10/10 10:13:19;;;;;;;11.33;7.53;;;;;;;;;;5069121;28;20640;-52
2023/10/10 10:15:56;;;;;;;10.37;7.93;;;;;;;;;;5071028;28;20192;-53
2023/10/10 10:18:27;;;;;;;8.57;7.23;;;;;;;;;;5070491;28;20191;-52
2023/10/10 10:23:45;;;;;;;14.90;7.20;;;;;;;;;;5069510;28;20196;-52
2023/10/10 10:26:11;;;;;;;9.70;7.13;;;;;;;;;;5070723;28;20164;-52
2023/10/10 10:28:42;;;;;;;7.03;6.33;;;;;;;;;;5070065;28;20765;-52
2023/10/10 10:31:27;;;;;;;9.80;6.07;;;;;;;;;;5070620;28;20237;-52
2023/10/10 10:34:23;;;;;;;6.63;5.73;;;;;;;;;;5069933;28;20160;-53
2023/10/10 10:36:54;;;;;;;8.37;6.47;;;;;;;;;;5070067;28;20580;-52
2023/10/10 10:39:25;;;;;;;7.30;6.53;;;;;;;;;;5068993;28;20176;-53
2023/10/10 10:41:54;;;;;;;6.87;6.00;;;;;;;;;;5070431;28;20188;-52
2023/10/10 10:44:31;;;;;;;6.70;6.10;;;;;;;;;;5068669;28;20267;-52
2023/10/10 10:46:58;;;;;;;7.50;5.73;;;;;;;;;;5070617;28;20265;-53
2023/10/10 10:49:28;;;;;;;9.37;5.43;;;;;;;;;;5069718;28;20180;-53
2023/10/10 10:52:17;;;;;;;7.23;5.90;;;;;;;;;;5070027;28;20187;-53
2023/10/10 10:54:43;;;;;;;7.07;5.73;;;;;;;;;;5069484;28;20647;-53
2023/10/10 10:57:27;;;;;;;6.97;5.77;;;;;;;;;;5069185;28;20156;-53
2023/10/10 10:59:55;;;;;;;8.70;5.80;;;;;;;;;;5070364;28;20256;-53
2023/10/10 11:02:31;;;;;;;8.60;7.07;;;;;;;;;;5069384;28;20172;-53
2023/10/10 11:04:58;;;;;;;9.47;5.93;;;;;;;;;;5069959;28;20718;-53
2023/10/10 11:07:40;;;;;;;7.60;6.50;;;;;;;;;;5068584;28;20727;-53
2023/10/10 11:10:07;;;;;;;8.17;6.27;;;;;;;;;;5069856;28;20160;-52
2023/10/10 11:12:40;;;;;;;8.50;5.67;;;;;;;;;;5069523;28;20636;-53
2023/10/10 11:15:10;;;;;;;8.37;6.10;;;;;;;;;;5070425;28;20176;-52
2023/10/10 11:17:40;;;;;;;8.33;5.40;;;;;;;;;;5069005;28;20256;-53
2023/10/10 11:20:25;;;;;;;7.27;5.70;;;;;;;;;;5069721;28;20213;-53
2023/10/10 11:22:54;;;;;;;8.47;6.37;;;;;;;;;;5068116;28;20243;-53
2023/10/10 11:25:29;;;;;;;6.00;5.17;;;;;;;;;;5069891;28;20306;-52
2023/10/10 11:28:03;;;;;;;7.33;6.10;;;;;;;;;;5068971;28;20175;-53
2023/10/10 11:30:30;;;;;;;10.20;5.50;;;;;;;;;;5069216;28;20228;-53
2023/10/10 11:35:41;;;;;;;6.23;5.20;;;;;;;;;;5069051;28;20240;-53
2023/10/10 11:38:09;;;;;;;8.23;5.30;;;;;;;;;;5067738;28;20217;-53
2023/10/10 11:40:36;;;;;;;6.10;5.33;;;;;;;;;;5069360;28;20242;-53
2023/10/10 11:43:06;;;;;;;9.07;5.10;;;;;;;;;;5069068;28;20397;-53
2023/10/10 11:45:39;;;;;;;5.83;5.03;;;;;;;;;;5068814;28;20185;-53
2023/10/10 11:48:12;;;;;;;5.90;4.87;;;;;;;;;;5068810;28;20261;-53
2023/10/10 11:50:49;;;;;;;6.00;5.40;;;;;;;;;;5068751;28;20264;-53
2023/10/10 11:53:27;;;;;;;7.57;5.17;;;;;;;;;;5067156;28;20182;-52
2023/10/10 11:55:54;;;;;;;5.83;4.87;;;;;;;;;;5069536;28;20240;-53
2023/10/10 11:58:23;;;;;;;6.60;4.50;;;;;;;;;;5068473;28;20229;-53
2023/10/10 12:01:09;;;;;;;5.83;5.17;;;;;;;;;;5068949;28;20183;-53
2023/10/10 12:06:14;;;;;;;5.83;5.00;;;;;;;;;;5069131;28;20176;-53
2023/10/10 12:08:40;;;;;;;7.77;5.10;;;;;;;;;;5067367;28;20538;-53
2023/10/10 12:11:12;;;;;;;9.20;5.40;;;;;;;;;;5068523;28;20211;-52
2023/10/10 12:13:38;;;;;;;5.67;4.63;;;;;;;;;;5066493;28;20171;-53
2023/10/10 12:16:10;;;;;;;6.70;4.50;;;;;;;;;;5068636;28;20218;-53
2023/10/10 12:18:43;;;;;;;6.43;4.63;;;;;;;;;;5068170;28;20171;-52
2023/10/10 12:21:10;;;;;;;5.43;4.93;;;;;;;;;;5068713;28;20573;-53
2023/10/10 12:23:36;;;;;;;4.90;4.17;;;;;;;;;;5066615;28;20610;-53
2023/10/10 12:26:03;;;;;;;5.07;4.53;;;;;;;;;;5069039;28;20583;-53
2023/10/10 12:28:29;;;;;;;5.10;4.23;;;;;;;;;;5065517;28;20188;-53
2023/10/10 12:31:02;;;;;;;5.80;5.20;;;;;;;;;;5068534;28;20652;-53
2023/10/10 12:33:29;;;;;;;7.73;4.70;;;;;;;;;;5067658;28;20181;-53
2023/10/10 12:35:56;;;;;;;4.70;4.07;;;;;;;;;;5068141;28;20176;-53
2023/10/10 12:38:23;;;;;;;7.37;4.60;;;;;;;;;;5066792;28;20254;-53
2023/10/10 12:40:49;;;;;;;5.83;4.93;;;;;;;;;;5068816;28;20164;-53
2023/10/10 12:43:15;;;;;;;5.17;4.60;;;;;;;;;;5067555;28;20199;-53
2023/10/10 12:45:42;;;;;;;7.83;4.80;;;;;;;;;;5068400;28;20444;-53
2023/10/10 12:48:20;;;;;;;6.03;4.27;;;;;;;;;;5067688;28;20210;-53
2023/10/10 12:50:46;;;;;;;5.80;4.60;;;;;;;;;;5068206;28;20199;-53
2023/10/10 12:53:15;;;;;;;5.63;5.03;;;;;;;;;;5066688;28;20168;-54
2023/10/10 12:58:51;;;;;;;5.20;4.63;;;;;;;;;;5054674;28;20203;-53
2023/10/10 13:01:22;;;;;;;4.77;4.23;;;;;;;;;;5068562;28;20806;-53
2023/10/10 13:03:49;;;;;;;6.03;4.93;;;;;;;;;;5070436;28;20171;-53
2023/10/10 13:06:15;;;;;;;6.73;4.40;;;;;;;;;;5070719;28;20183;-53
2023/10/10 13:11:20;;;;;;;6.47;4.97;;;;;;;;;;5072125;28;20188;-54
2023/10/10 13:13:51;;;;;;;6.70;5.13;;;;;;;;;;5071678;28;20312;-54
2023/10/10 13:19:09;;;;;;;5.73;4.40;;;;;;;;;;5072169;28;20192;-53
2023/10/10 13:21:39;;;;;;;7.20;4.93;;;;;;;;;;5071921;28;20170;-54
2023/10/10 13:24:13;;;;;;;5.70;5.07;;;;;;;;;;5071084;28;20189;-54
2023/10/10 13:26:45;;;;;;;4.60;4.00;;;;;;;;;;5071949;28;20722;-53
2023/10/10 13:29:13;;;;;;;7.17;4.63;;;;;;;;;;5070898;28;20301;-54
2023/10/10 13:31:41;;;;;;;5.00;4.60;;;;;;;;;;5071479;28;20211;-54
2023/10/10 13:34:07;;;;;;;6.13;5.23;;;;;;;;;;5070937;28;20216;-54
2023/10/10 13:36:33;;;;;;;4.97;4.47;;;;;;;;;;5071327;28;20183;-54
2023/10/10 13:39:05;;;;;;;5.93;4.87;;;;;;;;;;5070366;28;20569;-54
2023/10/10 13:41:35;;;;;;;6.20;4.57;;;;;;;;;;5071451;28;20183;-54
2023/10/10 13:44:02;;;;;;;6.30;4.50;;;;;;;;;;5070797;28;20650;-54
2023/10/10 13:46:28;;;;;;;8.47;5.17;;;;;;;;;;5071103;28;20209;-55
2023/10/10 13:48:54;;;;;;;6.77;4.73;;;;;;;;;;5071296;28;20518;-58
2023/10/10 13:51:20;;;;;;;7.07;5.10;;;;;;;;;;5071056;28;20225;-53
2023/10/10 13:53:47;;;;;;;6.33;4.50;;;;;;;;;;5068794;28;20276;-54
2023/10/10 13:56:16;;;;;;;7.10;4.80;;;;;;;;;;5070742;28;20548;-54
2023/10/10 13:58:51;;;;;;;5.50;4.63;;;;;;;;;;5070869;28;20200;-54
2023/10/10 14:01:36;;;;;;;5.87;5.27;;;;;;;;;;5071023;28;20164;-54
2023/10/10 14:06:47;;;;;;;6.50;4.37;;;;;;;;;;5070704;28;20241;-54
2023/10/10 14:12:20;;;;;;;7.03;4.33;;;;;;;;;;5068750;28;20222;-55
2023/10/10 14:14:46;;;;;;;6.00;4.87;;;;;;;;;;5070367;28;20177;-54
2023/10/10 14:17:12;;;;;;;4.90;4.20;;;;;;;;;;5070528;28;20522;-54
2023/10/10 14:19:39;;;;;;;5.27;4.20;;;;;;;;;;5071001;28;20476;-54
2023/10/10 14:22:10;;;;;;;5.53;4.47;;;;;;;;;;5068859;28;20251;-54
2023/10/10 14:24:36;;;;;;;6.87;5.83;;;;;;;;;;5070944;28;20165;-54
2023/10/10 14:27:02;;;;;;;4.97;4.47;;;;;;;;;;5070538;28;20188;-53
2023/10/10 14:29:40;;;;;;;6.63;5.00;;;;;;;;;;5070466;28;20221;-53
2023/10/10 14:32:10;;;;;;;5.43;4.37;;;;;;;;;;5070191;28;20194;-53
2023/10/10 14:34:38;;;;;;;5.53;4.53;;;;;;;;;;5070636;28;20165;-53
2023/10/10 14:37:04;;;;;;;6.03;4.80;;;;;;;;;;5069177;28;20222;-53
2023/10/10 14:39:44;;;;;;;5.37;4.73;;;;;;;;;;5070383;28;20187;-53
2023/10/10 14:42:13;;;;;;;5.63;4.80;;;;;;;;;;5070057;28;20692;-54
2023/10/10 14:44:40;;;;;;;6.67;5.17;;;;;;;;;;5070352;28;20245;-54
2023/10/10 14:47:07;;;;;;;6.10;5.03;;;;;;;;;;5070097;28;20226;-54
2023/10/10 14:49:38;;;;;;;5.10;4.47;;;;;;;;;;5070294;28;20197;-54
2023/10/10 14:52:05;;;;;;;6.40;4.40;;;;;;;;;;5069065;28;20193;-53
2023/10/10 14:54:48;;;;;;;5.00;4.50;;;;;;;;;;5070190;28;20256;-54
2023/10/10 14:57:24;;;;;;;5.13;4.57;;;;;;;;;;5069588;28;20165;-54
2023/10/10 14:59:50;;;;;;;5.83;4.67;;;;;;;;;;5069753;28;20215;-54
2023/10/10 15:02:18;;;;;;;4.67;4.27;;;;;;;;;;5069556;28;20276;-54
2023/10/10 15:04:50;;;;;;;7.67;5.00;;;;;;;;;;5068401;28;20164;-54
2023/10/10 15:07:17;;;;;;;6.23;4.97;;;;;;;;;;5068375;28;20176;-55
2023/10/10 15:09:43;;;;;;;5.40;4.07;;;;;;;;;;5069594;28;20165;-54
2023/10/10 15:12:09;;;;;;;7.03;4.33;;;;;;;;;;5069129;28;20196;-54
2023/10/10 15:14:35;;;;;;;7.10;5.33;;;;;;;;;;5070033;28;20315;-54
2023/10/10 15:17:04;;;;;;;6.07;4.80;;;;;;;;;;5069410;28;20149;-54
2023/10/10 15:19:30;;;;;;;5.07;4.27;;;;;;;;;;5069367;28;20172;-54
2023/10/10 15:21:56;;;;;;;8.33;5.00;;;;;;;;;;5068793;28;20256;-54
2023/10/10 15:24:23;;;;;;;9.23;5.67;;;;;;;;;;5068831;28;20276;-54
2023/10/10 15:26:51;;;;;;;5.23;4.57;;;;;;;;;;5069279;28;20168;-53
2023/10/10 15:29:18;;;;;;;7.10;5.00;;;;;;;;;;5067953;28;20247;-54
2023/10/10 15:31:45;;;;;;;7.03;5.03;;;;;;;;;;5069051;28;20204;-54
2023/10/10 15:34:11;;;;;;;5.20;4.70;;;;;;;;;;5068890;28;20184;-54
2023/10/10 15:36:38;;;;;;;5.60;5.03;;;;;;;;;;5068623;28;20177;-54
2023/10/10 15:39:06;;;;;;;6.00;4.53;;;;;;;;;;5067942;28;20256;-54
2023/10/10 15:41:34;;;;;;;7.97;4.90;;;;;;;;;;5069436;28;20179;-54
2023/10/10 15:44:03;;;;;;;6.27;5.00;;;;;;;;;;5067234;28;20287;-53
2023/10/10 15:46:36;;;;;;;8.40;5.37;;;;;;;;;;5067390;28;20552;-53
2023/10/10 15:49:03;;;;;;;5.97;4.60;;;;;;;;;;5068513;28;20192;-53
2023/10/10 15:51:38;;;;;;;6.67;4.80;;;;;;;;;;5068265;28;20281;-54
2023/10/10 15:54:05;;;;;;;5.47;4.60;;;;;;;;;;5067715;28;20540;-53
2023/10/10 15:56:31;;;;;;;7.03;5.40;;;;;;;;;;5068607;28;20165;-53
2023/10/10 15:58:57;;;;;;;6.37;4.77;;;;;;;;;;5068305;28;20228;-54
2023/10/10 16:01:34;;;;;;;6.90;5.20;;;;;;;;;;5068636;28;20268;-54
2023/10/10 16:04:05;;;;;;;7.67;4.97;;;;;;;;;;5068683;28;20640;-53
2023/10/10 16:06:33;;;;;;;6.87;5.27;;;;;;;;;;5068096;28;20161;-54
2023/10/10 16:09:03;;;;;;;7.07;5.27;;;;;;;;;;5067613;28;20170;-54
2023/10/10 16:11:34;;;;;;;7.33;5.00;;;;;;;;;;5068636;28;20562;-53
2023/10/10 16:14:00;;;;;;;6.37;4.80;;;;;;;;;;5068442;28;20180;-54
2023/10/10 16:16:29;;;;;;;7.63;5.33;;;;;;;;;;5068450;28;20254;-53
2023/10/10 16:18:56;;;;;;;6.20;5.03;;;;;;;;;;5068236;28;20180;-54
2023/10/10 16:21:25;;;;;;;8.77;5.40;;;;;;;;;;5067826;28;20515;-53
2023/10/10 16:23:54;;;;;;;5.30;4.60;;;;;;;;;;5067478;28;20191;-53
2023/10/10 16:26:20;;;;;;;6.40;5.57;;;;;;;;;;5068572;28;20241;-54
2023/10/10 16:28:49;;;;;;;5.45;4.85;;;;;;;;;;5067508;28;20225;-53
2023/10/10 16:31:31;;;;;;;5.87;5.20;;;;;;;;;;5068161;28;20182;-53
2023/10/10 16:34:02;;;;;;;5.00;4.50;;;;;;;;;;5067803;28;20232;-53
2023/10/10 16:36:28;;;;;;;6.13;5.53;;;;;;;;;;5068001;28;20644;-54
2023/10/10 16:38:55;;;;;;;6.27;5.13;;;;;;;;;;5066967;28;20529;-53
2023/10/10 16:41:24;;;;;;;5.57;4.87;;;;;;;;;;5066767;28;20545;-53
2023/10/10 16:43:51;;;;;;;5.80;5.00;;;;;;;;;;5067721;28;20552;-54
2023/10/10 16:46:17;;;;;;;6.10;5.30;;;;;;;;;;5068313;28;20651;-53
2023/10/10 16:48:44;;;;;;;6.20;5.50;;;;;;;;;;5067098;28;20231;-58
2023/10/10 16:51:15;;;;;;;6.77;5.63;;;;;;;;;;5066404;28;20568;-53
2023/10/10 16:53:43;;;;;;;6.80;6.00;;;;;;;;;;5066359;28;20486;-53
2023/10/10 16:56:09;;;;;;;5.53;5.03;;;;;;;;;;5068064;28;20153;-53
2023/10/10 16:58:39;;;;;;;6.50;5.90;;;;;;;;;;5067900;28;20657;-53
2023/10/10 17:01:12;;;;;;;7.83;5.67;;;;;;;;;;5067882;28;20656;-53
2023/10/10 17:03:43;;;;;;;6.57;5.50;;;;;;;;;;5067509;28;20177;-53
2023/10/10 17:06:09;;;;;;;6.23;5.63;;;;;;;;;;5067921;28;20272;-53
2023/10/10 17:08:36;;;;;;;7.32;6.38;;;;;;;;;;5065453;28;20454;-53
2023/10/10 17:11:05;;;;;;;6.30;5.67;;;;;;;;;;5067993;28;20281;-53
2023/10/10 17:13:38;;;;;;;5.70;5.10;;;;;;;;;;5067638;28;20181;-53
2023/10/10 17:16:14;;;;;;;6.97;5.67;;;;;;;;;;5068128;28;20169;-53
2023/10/10 17:18:42;;;;;;;7.13;5.13;;;;;;;;;;5067212;28;20287;-53
2023/10/10 17:21:08;;;;;;;6.10;5.40;;;;;;;;;;5068085;28;20243;-53
2023/10/10 17:23:35;;;;;;;6.03;5.43;;;;;;;;;;5066526;28;20176;-53
2023/10/10 17:26:04;;;;;;;5.73;5.23;;;;;;;;;;5067872;28;20214;-53
2023/10/10 17:28:30;;;;;;;5.70;5.17;;;;;;;;;;5066150;28;20271;-53
2023/10/10 17:30:58;;;;;;;6.93;5.73;;;;;;;;;;5067963;28;20205;-53
2023/10/10 17:33:24;;;;;;;6.63;6.00;;;;;;;;;;5067617;28;20500;-53
2023/10/10 17:35:50;;;;;;;5.90;5.30;;;;;;;;;;5066892;28;20248;-53
2023/10/10 17:38:18;;;;;;;6.63;5.40;;;;;;;;;;5066227;28;20354;-53
2023/10/10 17:40:45;;;;;;;6.73;5.10;;;;;;;;;;5067457;28;20192;-53
2023/10/10 17:43:13;;;;;;;9.53;6.17;;;;;;;;;;5067183;28;20553;-53
2023/10/10 17:45:42;;;;;;;6.83;4.77;;;;;;;;;;5055040;28;20303;-54